Time;durP1;ratioP1;P1;durP2;ratioP2;P2;SDS_P1;SDS_P2;PMS_P1;PMS_P2;Temp;Humidity;BMP_temperature;BMP_pressure;BME280_temperature;BME280_humidity;BME280_pressure;Samples;Min_cycle;Max_cycle;Signal;HPM_P1;HPM_P2
2021/04/02 00:00:31;;;;;;;23.93;16.08;;;;;;;11.59;65.69;98564.20;118206;1208;22893;-64
2021/04/02 00:02:59;;;;;;;23.03;17.00;;;;;;;11.57;65.96;98566.41;118059;1203;22853;-64
2021/04/02 00:05:26;;;;;;;30.30;17.30;;;;;;;11.54;66.00;98559.61;118165;1203;22948;-63
2021/04/02 00:07:54;;;;;;;29.65;16.00;;;;;;;11.53;66.17;98549.82;118101;1208;22858;-64
2021/04/02 00:10:23;;;;;;;25.80;15.70;;;;;;;11.52;66.03;98561.83;115464;1208;23244;-63
2021/04/02 00:12:50;;;;;;;23.53;15.65;;;;;;;11.52;65.78;98566.48;118006;1205;23506;-64
2021/04/02 00:15:34;;;;;;;21.53;14.53;;;;;;;11.53;65.75;98554.47;118100;1206;22831;-64
2021/04/02 00:18:02;;;;;;;23.73;16.73;;;;;;;11.53;65.65;98543.55;118067;1203;24098;-64
2021/04/02 00:20:30;;;;;;;24.90;16.20;;;;;;;11.54;65.19;98548.69;118176;1203;22910;-64
2021/04/02 00:22:57;;;;;;;23.23;16.95;;;;;;;11.54;65.25;98551.42;118073;1203;22933;-64
2021/04/02 00:25:26;;;;;;;22.43;15.07;;;;;;;11.54;65.17;98532.33;117899;1203;22845;-64
2021/04/02 00:27:53;;;;;;;22.50;15.47;;;;;;;11.54;65.37;98526.87;118121;1208;22931;-64
2021/04/02 00:30:24;;;;;;;20.30;15.38;;;;;;;11.54;65.73;98526.09;117607;1203;22951;-64
2021/04/02 00:32:52;;;;;;;26.63;16.35;;;;;;;11.51;65.98;98513.83;117765;1203;22981;-63
2021/04/02 00:35:19;;;;;;;21.05;14.93;;;;;;;11.47;65.96;98510.05;117788;1205;22844;-63
2021/04/02 00:37:47;;;;;;;25.45;15.75;;;;;;;11.43;66.06;98483.63;118182;1208;23591;-64
2021/04/02 00:40:18;;;;;;;32.13;16.63;;;;;;;11.37;66.10;98488.34;118127;1208;24237;-64
2021/04/02 00:42:48;;;;;;;30.63;17.00;;;;;;;11.30;65.81;98479.67;118203;1203;22836;-64
2021/04/02 00:45:19;;;;;;;27.00;18.57;;;;;;;11.27;65.77;98488.41;118083;1203;22843;-65
2021/04/02 00:47:50;;;;;;;33.48;16.85;;;;;;;11.22;65.81;98481.13;118145;1206;22827;-64
2021/04/02 00:50:22;;;;;;;25.60;16.10;;;;;;;11.22;65.88;98483.84;118105;1208;22838;-64
2021/04/02 00:52:49;;;;;;;24.90;14.97;;;;;;;11.20;65.53;98479.78;118156;1203;23775;-64
2021/04/02 00:55:17;;;;;;;27.03;16.00;;;;;;;11.20;65.64;98475.14;117848;1203;23699;-64
2021/04/02 00:57:45;;;;;;;23.87;15.13;;;;;;;11.20;65.22;98471.59;118177;1203;22888;-64
2021/04/02 01:00:14;;;;;;;25.83;16.07;;;;;;;11.19;65.23;98470.78;117659;1207;22932;-64
2021/04/02 01:02:42;;;;;;;25.60;16.03;;;;;;;11.19;65.13;98468.05;117860;1205;22898;-64
2021/04/02 01:05:16;;;;;;;25.78;15.53;;;;;;;11.19;64.87;98461.79;117865;1203;22984;-57
2021/04/02 01:07:58;;;;;;;25.00;16.13;;;;;;;11.18;64.72;98457.44;117936;1206;22823;-64
2021/04/02 01:10:27;;;;;;;28.60;17.63;;;;;;;11.18;64.55;98460.98;117917;1207;26416;-64
2021/04/02 01:13:07;;;;;;;28.90;17.95;;;;;;;11.16;64.54;98462.36;118210;1203;22883;-64
2021/04/02 01:16:01;;;;;;;33.30;18.08;;;;;;;11.11;64.51;98455.03;117857;1203;23962;-64
2021/04/02 01:18:52;;;;;;;28.47;16.90;;;;;;;11.08;64.41;98458.36;118123;1205;22848;-64
2021/04/02 01:21:31;;;;;;;28.98;17.70;;;;;;;11.03;64.47;98463.03;117931;1203;22855;-64
2021/04/02 01:24:28;;;;;;;25.10;16.70;;;;;;;10.98;64.51;98463.88;117894;1206;23506;-64
2021/04/02 01:27:23;;;;;;;27.18;17.53;;;;;;;10.94;64.68;98469.11;117950;1205;23836;-64
2021/04/02 01:30:02;;;;;;;28.67;17.27;;;;;;;10.89;64.75;98471.88;118060;1208;22878;-64
2021/04/02 01:32:35;;;;;;;24.90;16.93;;;;;;;10.84;64.80;98463.73;117872;1203;23705;-64
2021/04/02 01:35:15;;;;;;;28.63;17.63;;;;;;;10.81;65.07;98453.42;117930;1203;22803;-64
2021/04/02 01:38:08;;;;;;;29.27;17.40;;;;;;;10.77;65.15;98448.83;117762;1203;23776;-64
2021/04/02 01:40:36;;;;;;;27.43;17.07;;;;;;;10.74;65.05;98441.22;118114;1203;22989;-64
2021/04/02 01:43:07;;;;;;;27.13;16.63;;;;;;;10.72;65.22;98441.50;117935;1203;23485;-64
2021/04/02 01:45:35;;;;;;;22.95;14.90;;;;;;;10.72;65.32;98444.22;117881;1206;22820;-64
2021/04/02 01:48:05;;;;;;;24.23;15.90;;;;;;;10.72;65.43;98440.68;117867;1206;23471;-64
2021/04/02 01:50:33;;;;;;;27.03;16.43;;;;;;;10.72;65.36;98436.05;117896;1204;22844;-64
2021/04/02 01:53:02;;;;;;;28.97;17.40;;;;;;;10.73;65.39;98434.14;117860;1204;22954;-64
2021/04/02 01:55:30;;;;;;;27.87;17.23;;;;;;;10.73;65.38;98439.59;117850;1204;23482;-63
2021/04/02 01:57:59;;;;;;;26.47;17.80;;;;;;;10.73;65.67;98440.40;117779;1203;23045;-64
2021/04/02 02:00:33;;;;;;;28.80;17.10;;;;;;;10.73;65.60;98426.78;118077;1209;22916;-64
2021/04/02 02:03:01;;;;;;;25.83;15.97;;;;;;;10.73;65.70;98429.50;118092;1203;22803;-64
2021/04/02 02:05:31;;;;;;;24.93;16.43;;;;;;;10.72;65.82;98430.59;117985;1206;23395;-64
2021/04/02 02:08:03;;;;;;;27.07;16.67;;;;;;;10.70;65.63;98430.06;117827;1203;23748;-64
2021/04/02 02:10:32;;;;;;;28.70;17.03;;;;;;;10.70;65.72;98424.62;117836;1205;22857;-64
2021/04/02 02:13:00;;;;;;;24.10;16.33;;;;;;;10.67;65.80;98421.67;117777;1203;23019;-64
2021/04/02 02:15:38;;;;;;;24.73;16.63;;;;;;;10.61;66.03;98413.53;117115;1208;23221;-63
2021/04/02 02:18:12;;;;;;;30.57;17.30;;;;;;;10.59;66.10;98420.36;117837;1203;22949;-64
2021/04/02 02:20:41;;;;;;;24.40;15.97;;;;;;;10.55;66.33;98420.11;118158;1203;22926;-66
2021/04/02 02:23:10;;;;;;;28.55;18.80;;;;;;;10.51;66.36;98415.53;117639;1205;23602;-64
2021/04/02 02:25:38;;;;;;;29.70;16.47;;;;;;;10.47;66.43;98417.20;117794;1206;22847;-64
2021/04/02 02:28:07;;;;;;;27.10;16.63;;;;;;;10.44;66.54;98417.75;117455;1209;22913;-64
2021/04/02 02:30:35;;;;;;;25.47;15.67;;;;;;;10.44;66.55;98415.03;117720;1205;23083;-64
2021/04/02 02:33:10;;;;;;;26.23;14.97;;;;;;;10.45;66.66;98420.20;117610;1206;22887;-64
2021/04/02 02:35:45;;;;;;;29.07;15.67;;;;;;;10.46;66.53;98408.21;117709;1206;23638;-64
2021/04/02 02:38:13;;;;;;;25.60;14.87;;;;;;;10.46;66.48;98405.48;117681;1208;22993;-64
2021/04/02 02:40:41;;;;;;;27.67;16.40;;;;;;;10.48;66.39;98399.76;117744;1205;22978;-64
2021/04/02 02:43:09;;;;;;;23.73;15.10;;;;;;;10.48;66.36;98402.48;117733;1205;22896;-64
2021/04/02 02:45:37;;;;;;;25.40;15.60;;;;;;;10.48;66.40;98410.66;117793;1206;23525;-64
2021/04/02 02:48:06;;;;;;;23.63;14.93;;;;;;;10.46;66.25;98402.77;117817;1205;22999;-64
2021/04/02 02:50:37;;;;;;;23.43;15.10;;;;;;;10.46;66.09;98408.21;117710;1205;22939;-64
2021/04/02 02:53:06;;;;;;;27.35;15.95;;;;;;;10.43;65.97;98403.33;117704;1205;22855;-64
2021/04/02 02:55:34;;;;;;;24.30;14.90;;;;;;;10.42;65.91;98412.59;117811;1205;22787;-64
2021/04/02 02:58:03;;;;;;;24.40;15.23;;;;;;;10.42;65.60;98419.94;117953;1206;22845;-64
2021/04/02 03:00:36;;;;;;;24.23;15.33;;;;;;;10.38;66.05;98425.17;117829;1203;22832;-64
2021/04/02 03:03:05;;;;;;;25.47;16.00;;;;;;;10.37;65.73;98422.73;117936;1203;23806;-64
2021/04/02 03:05:32;;;;;;;24.67;15.23;;;;;;;10.35;65.65;98425.73;117807;1203;22907;-64
2021/04/02 03:08:01;;;;;;;23.37;15.73;;;;;;;10.35;65.83;98425.73;117911;1209;22903;-64
2021/04/02 03:10:31;;;;;;;27.38;17.08;;;;;;;10.33;66.08;98427.91;117778;1208;22831;-64
2021/04/02 03:15:05;;;;;;;27.33;15.93;;;;;;;10.30;65.82;98422.22;113386;1205;23122;-63
2021/04/02 03:17:40;;;;;;;26.37;15.80;;;;;;;10.28;66.01;98414.33;113493;1209;23138;-63
2021/04/02 03:20:10;;;;;;;30.30;18.00;;;;;;;10.26;65.61;98417.33;117112;1209;22904;-65
2021/04/02 03:22:37;;;;;;;27.53;17.63;;;;;;;10.24;65.93;98421.45;117168;1209;22868;-65
2021/04/02 03:25:16;;;;;;;26.25;16.00;;;;;;;10.22;65.76;98423.64;117109;1209;23023;-64
2021/04/02 03:27:51;;;;;;;29.30;17.35;;;;;;;10.21;65.65;98417.38;117171;1209;22854;-65
2021/04/02 03:30:29;;;;;;;27.93;16.30;;;;;;;10.21;66.03;98416.57;117106;1209;22955;-65
2021/04/02 03:33:09;;;;;;;27.15;16.45;;;;;;;10.20;65.86;98426.64;117245;1211;23882;-64
2021/04/02 03:35:37;;;;;;;28.20;18.30;;;;;;;10.18;65.83;98417.09;116870;1215;22894;-64
2021/04/02 03:38:06;;;;;;;28.90;16.85;;;;;;;10.17;65.84;98420.91;117040;1210;22912;-64
2021/04/02 03:40:35;;;;;;;32.15;16.15;;;;;;;10.14;65.96;98421.47;116863;1212;22943;-64
2021/04/02 03:43:03;;;;;;;26.40;16.10;;;;;;;10.12;65.90;98410.86;117167;1210;23531;-64
2021/04/02 03:45:31;;;;;;;23.90;16.30;;;;;;;10.11;65.90;98413.86;117148;1212;22880;-64
2021/04/02 03:47:58;;;;;;;26.23;18.10;;;;;;;10.08;65.76;98419.89;117200;1211;22893;-64
2021/04/02 03:50:29;;;;;;;27.00;17.80;;;;;;;10.05;65.79;98415.82;117089;1209;22907;-64
2021/04/02 03:52:59;;;;;;;30.45;17.30;;;;;;;10.04;65.80;98413.38;117121;1209;23140;-64
2021/04/02 03:55:28;;;;;;;28.90;17.95;;;;;;;10.01;65.82;98412.02;117245;1209;22816;-64
2021/04/02 03:57:57;;;;;;;28.03;18.90;;;;;;;9.99;65.73;98411.48;117133;1209;23078;-64
2021/04/02 04:00:29;;;;;;;29.63;17.83;;;;;;;9.96;66.22;98409.33;117164;1209;22817;-65
2021/04/02 04:03:03;;;;;;;31.50;18.05;;;;;;;9.95;65.62;98402.28;117240;1212;22832;-65
2021/04/02 04:05:32;;;;;;;37.30;19.63;;;;;;;9.92;65.71;98403.66;117220;1209;22976;-65
2021/04/02 04:08:04;;;;;;;32.80;20.35;;;;;;;9.89;65.55;98395.23;117086;1209;22906;-64
2021/04/02 04:10:32;;;;;;;32.20;18.65;;;;;;;9.81;65.31;98398.55;117230;1209;22920;-65
2021/04/02 04:13:00;;;;;;;33.70;19.35;;;;;;;9.74;65.57;98401.57;117097;1209;23071;-65
2021/04/02 04:15:28;;;;;;;25.40;18.00;;;;;;;9.72;66.31;98417.35;117218;1209;22914;-65
2021/04/02 04:17:58;;;;;;;29.80;17.97;;;;;;;9.72;66.52;98413.81;117124;1209;23547;-65
2021/04/02 04:20:26;;;;;;;26.45;17.80;;;;;;;9.72;66.51;98403.75;117219;1209;23574;-65
2021/04/02 04:23:19;;;;;;;28.15;17.25;;;;;;;9.71;66.32;98404.03;117003;1212;23718;-65
2021/04/02 04:25:49;;;;;;;31.58;18.85;;;;;;;9.70;66.78;98395.05;117229;1209;23085;-65
2021/04/02 04:28:16;;;;;;;30.40;20.00;;;;;;;9.68;66.81;98390.98;117253;1208;22981;-65
2021/04/02 04:30:46;;;;;;;32.70;18.95;;;;;;;9.67;66.86;98392.89;117225;1209;22906;-65
2021/04/02 04:33:13;;;;;;;31.05;18.75;;;;;;;9.66;67.09;98396.73;117245;1209;23019;-65
2021/04/02 04:35:41;;;;;;;33.30;19.65;;;;;;;9.64;67.02;98400.81;117180;1209;22953;-65
2021/04/02 04:38:08;;;;;;;32.07;18.20;;;;;;;9.61;67.30;98377.70;117134;1209;23746;-65
2021/04/02 04:40:36;;;;;;;31.97;19.93;;;;;;;9.60;67.55;98378.80;117234;1209;22829;-65
2021/04/02 04:43:03;;;;;;;29.60;18.55;;;;;;;9.56;67.86;98386.69;117093;1209;25387;-65
2021/04/02 04:45:31;;;;;;;38.70;20.35;;;;;;;9.54;67.80;98386.15;117237;1209;22831;-64
2021/04/02 04:47:58;;;;;;;31.30;20.30;;;;;;;9.52;67.74;98382.89;117147;1209;23794;-64
2021/04/02 04:50:26;;;;;;;35.33;19.67;;;;;;;9.53;67.87;98378.27;117343;1209;22961;-64
2021/04/02 04:52:56;;;;;;;37.80;22.13;;;;;;;9.51;68.43;98381.30;117216;1208;22948;-63
2021/04/02 04:55:24;;;;;;;39.60;24.90;;;;;;;9.51;68.46;98383.20;117110;1212;22828;-63
2021/04/02 04:57:51;;;;;;;40.87;24.37;;;;;;;9.52;68.30;98398.42;117284;1209;22862;-63
2021/04/02 05:00:19;;;;;;;34.70;21.90;;;;;;;9.54;68.52;98404.37;117133;1209;22812;-63
2021/04/02 05:02:47;;;;;;;28.30;19.10;;;;;;;9.57;68.44;98415.52;117191;1209;23568;-63
2021/04/02 05:05:19;;;;;;;31.60;19.60;;;;;;;9.61;68.19;98410.34;117125;1212;22833;-63
2021/04/02 05:07:49;;;;;;;45.70;21.50;;;;;;;9.65;68.13;98413.32;117308;1208;23689;-63
2021/04/02 05:10:18;;;;;;;32.65;22.75;;;;;;;9.70;67.82;98413.28;117104;1208;22987;-63
2021/04/02 05:12:47;;;;;;;38.60;22.80;;;;;;;9.72;67.51;98403.75;117223;1209;22925;-63
2021/04/02 05:15:15;;;;;;;32.40;22.10;;;;;;;9.77;67.40;98392.04;117132;1208;22989;-62
2021/04/02 05:17:51;;;;;;;32.40;22.23;;;;;;;9.79;67.11;98400.74;117226;1209;24049;-63
2021/04/02 05:20:22;;;;;;;42.53;21.83;;;;;;;9.82;67.33;98402.88;117191;1209;23733;-63
2021/04/02 05:22:50;;;;;;;38.95;22.10;;;;;;;9.82;67.15;98409.13;117203;1209;23712;-64
2021/04/02 05:25:17;;;;;;;47.33;22.87;;;;;;;9.83;67.34;98396.34;117118;1212;22835;-64
2021/04/02 05:27:45;;;;;;;46.50;21.45;;;;;;;9.84;67.39;98398.78;117279;1208;24059;-63
2021/04/02 05:30:13;;;;;;;48.30;23.27;;;;;;;9.86;67.54;98395.79;117200;1209;23291;-64
2021/04/02 05:32:41;;;;;;;42.60;21.20;;;;;;;9.87;67.53;98403.67;117325;1212;22874;-63
2021/04/02 05:35:10;;;;;;;38.53;20.10;;;;;;;9.86;67.68;98391.16;117128;1208;23058;-63
2021/04/02 05:37:37;;;;;;;36.00;21.40;;;;;;;9.86;68.50;98393.88;117309;1209;23983;-63
2021/04/02 05:40:05;;;;;;;34.30;19.53;;;;;;;9.87;69.53;98400.14;117216;1209;22968;-63
2021/04/02 05:42:33;;;;;;;40.60;18.77;;;;;;;9.85;69.95;98384.09;117243;1209;23249;-62
2021/04/02 05:45:00;;;;;;;28.80;18.40;;;;;;;9.81;70.46;98385.73;117323;1208;22932;-63
2021/04/02 05:47:28;;;;;;;31.40;18.27;;;;;;;9.76;71.12;98382.25;117134;1208;22900;-63
2021/04/02 05:49:56;;;;;;;34.73;20.47;;;;;;;9.67;71.43;98362.97;117248;1209;22917;-63
2021/04/02 05:52:27;;;;;;;39.85;22.55;;;;;;;9.54;72.38;98334.48;117131;1209;22848;-62
2021/04/02 05:54:55;;;;;;;37.20;21.10;;;;;;;9.38;74.07;98294.06;117172;1212;23445;-63
2021/04/02 05:57:22;;;;;;;37.33;19.70;;;;;;;9.19;74.63;98267.55;117283;1209;22913;-61
2021/04/02 05:59:50;;;;;;;35.65;19.50;;;;;;;9.09;75.79;98272.23;117346;1209;22875;-64
2021/04/02 06:02:17;;;;;;;32.95;21.20;;;;;;;9.05;76.79;98290.17;117133;1209;22912;-63
2021/04/02 06:04:45;;;;;;;38.80;23.25;;;;;;;9.04;77.11;98291.25;117281;1209;22957;-64
2021/04/02 06:07:13;;;;;;;31.70;20.90;;;;;;;9.03;77.14;98306.74;117146;1209;23329;-64
2021/04/02 06:09:40;;;;;;;42.87;23.17;;;;;;;9.00;77.57;98317.34;117177;1212;22852;-65
2021/04/02 06:12:13;;;;;;;37.30;23.00;;;;;;;8.99;77.99;98335.55;117119;1208;23644;-64
2021/04/02 06:14:40;;;;;;;34.75;20.60;;;;;;;9.03;77.96;98343.97;117306;1212;22979;-64
2021/04/02 06:17:08;;;;;;;30.10;20.35;;;;;;;9.06;78.69;98344.23;117120;1208;22979;-64
2021/04/02 06:19:35;;;;;;;33.40;20.00;;;;;;;9.12;78.93;98331.42;117349;1208;23856;-64
2021/04/02 06:22:04;;;;;;;30.27;19.37;;;;;;;9.19;79.36;98299.34;117164;1212;24079;-64
2021/04/02 06:24:35;;;;;;;36.70;18.55;;;;;;;9.28;79.96;98303.09;117206;1209;25139;-64
2021/04/02 06:27:04;;;;;;;28.37;17.50;;;;;;;9.38;80.27;98316.63;117228;1212;22958;-64
2021/04/02 06:29:38;;;;;;;28.65;17.85;;;;;;;9.47;80.33;98347.59;117309;1209;22897;-64
2021/04/02 06:32:13;;;;;;;28.95;18.30;;;;;;;9.56;80.42;98378.53;117096;1209;22916;-64
2021/04/02 06:34:48;;;;;;;31.25;19.40;;;;;;;9.67;80.48;98392.08;117723;1208;23054;-64
2021/04/02 06:37:16;;;;;;;36.60;25.30;;;;;;;9.77;80.83;98402.92;117812;1207;22917;-64
2021/04/02 06:39:51;;;;;;;39.87;23.80;;;;;;;9.84;80.63;98400.69;117874;1205;22859;-65
2021/04/02 06:42:31;;;;;;;37.13;23.10;;;;;;;9.89;80.53;98417.81;117822;1205;22914;-64
2021/04/02 06:45:07;;;;;;;34.50;22.25;;;;;;;9.93;80.04;98420.80;117777;1208;22866;-64
2021/04/02 06:47:38;;;;;;;32.90;21.90;;;;;;;9.93;79.88;98418.89;117693;1205;22930;-64
2021/04/02 06:50:22;;;;;;;32.20;22.25;;;;;;;9.95;79.71;98421.33;117821;1205;23022;-64
2021/04/02 06:52:51;;;;;;;33.85;22.50;;;;;;;9.95;79.21;98418.61;117742;1205;22865;-64
2021/04/02 06:55:20;;;;;;;38.93;27.73;;;;;;;9.93;79.38;98428.95;117756;1206;23652;-64
2021/04/02 06:57:52;;;;;;;45.07;29.07;;;;;;;9.91;79.16;98426.52;117932;1204;22862;-64
2021/04/02 07:00:26;;;;;;;39.37;25.27;;;;;;;9.89;78.96;98427.88;117693;1205;22834;-64
2021/04/02 07:02:54;;;;;;;56.80;25.97;;;;;;;9.88;79.23;98432.51;117830;1206;22863;-64
2021/04/02 07:05:23;;;;;;;37.30;24.55;;;;;;;9.89;79.08;98433.32;117503;1207;23674;-65
2021/04/02 07:08:09;;;;;;;37.47;25.23;;;;;;;9.90;79.14;98429.52;117858;1205;22849;-66
2021/04/02 07:10:37;;;;;;;38.45;24.50;;;;;;;9.92;79.40;98438.21;117704;1209;22835;-64
2021/04/02 07:13:07;;;;;;;36.17;25.03;;;;;;;9.92;79.22;98441.75;117686;1205;22847;-64
2021/04/02 07:15:36;;;;;;;38.13;23.50;;;;;;;9.94;79.47;98449.63;117604;1205;22909;-64
2021/04/02 07:18:05;;;;;;;36.10;23.80;;;;;;;9.97;79.45;98446.33;117985;1205;22987;-64
2021/04/02 07:20:33;;;;;;;38.88;22.95;;;;;;;10.00;79.54;98445.77;117853;1206;22907;-64
2021/04/02 07:23:00;;;;;;;34.48;23.15;;;;;;;9.99;79.72;98446.05;117886;1206;22911;-64
2021/04/02 07:25:28;;;;;;;35.07;24.33;;;;;;;9.98;80.04;98450.67;117772;1205;22852;-64
2021/04/02 07:27:56;;;;;;;33.90;24.77;;;;;;;9.98;80.21;98450.67;117919;1204;22999;-64
2021/04/02 07:30:29;;;;;;;35.67;25.83;;;;;;;9.96;80.73;98454.77;117902;1206;23760;-63
2021/04/02 07:33:07;;;;;;;31.93;23.50;;;;;;;9.90;81.34;98449.38;117736;1209;22900;-64
2021/04/02 07:35:39;;;;;;;31.50;22.67;;;;;;;9.82;82.21;98465.45;116889;1204;23121;-65
2021/04/02 07:38:16;;;;;;;29.70;21.00;;;;;;;9.73;82.27;98467.94;117859;1205;22989;-66
2021/04/02 07:40:48;;;;;;;30.47;18.80;;;;;;;9.69;82.56;98474.20;117708;1209;22944;-66
2021/04/02 07:43:15;;;;;;;27.40;17.20;;;;;;;9.55;82.04;98477.52;117904;1208;22895;-66
2021/04/02 07:45:51;;;;;;;23.35;13.55;;;;;;;9.40;81.73;98487.61;117783;1205;22835;-66
2021/04/02 07:48:25;;;;;;;22.90;14.45;;;;;;;9.20;81.45;98492.02;117834;1206;22922;-64
2021/04/02 07:50:56;;;;;;;23.70;14.83;;;;;;;9.04;81.64;98492.30;117839;1207;23453;-64
2021/04/02 07:53:24;;;;;;;20.67;13.17;;;;;;;8.92;81.96;98494.49;117938;1208;22999;-64
2021/04/02 07:55:55;;;;;;;18.35;12.50;;;;;;;8.83;82.36;98480.63;117926;1204;22855;-64
2021/04/02 07:58:24;;;;;;;20.27;12.63;;;;;;;8.69;83.16;98496.64;117886;1205;23013;-63
2021/04/02 08:00:57;;;;;;;18.00;11.35;;;;;;;8.58;83.48;98497.73;117819;1208;22854;-63
2021/04/02 08:03:26;;;;;;;19.20;11.85;;;;;;;8.50;83.50;98504.52;117956;1206;22796;-64
2021/04/02 08:05:53;;;;;;;17.00;10.20;;;;;;;8.45;84.24;98504.50;116771;1206;23177;-63
2021/04/02 08:08:23;;;;;;;16.35;11.20;;;;;;;8.38;83.96;98505.83;117904;1204;22926;-65
2021/04/02 08:11:20;;;;;;;22.00;12.60;;;;;;;8.35;84.36;98506.39;117686;1206;22919;-64
2021/04/02 08:13:58;;;;;;;17.30;11.28;;;;;;;8.33;84.24;98514.80;117922;1205;23634;-64
2021/04/02 08:16:32;;;;;;;17.10;11.47;;;;;;;8.31;83.60;98516.11;117846;1206;23410;-64
2021/04/02 08:19:24;;;;;;;22.45;10.95;;;;;;;8.25;84.36;98512.56;117848;1205;22840;-65
2021/04/02 08:22:11;;;;;;;13.90;9.93;;;;;;;8.19;83.94;98516.36;117780;1205;23072;-65
2021/04/02 08:24:47;;;;;;;20.43;11.17;;;;;;;8.10;84.27;98524.18;117922;1208;22938;-64
2021/04/02 08:27:16;;;;;;;15.93;10.23;;;;;;;8.01;84.58;98527.69;117854;1206;22876;-64
2021/04/02 08:29:44;;;;;;;15.70;9.55;;;;;;;7.90;84.78;98531.44;117946;1205;28357;-64
2021/04/02 08:32:14;;;;;;;19.35;14.20;;;;;;;7.79;84.49;98528.66;117804;1205;27968;-64
2021/04/02 08:34:43;;;;;;;16.25;10.35;;;;;;;7.66;84.62;98529.14;118048;1207;23070;-64
2021/04/02 08:37:12;;;;;;;13.77;9.77;;;;;;;7.55;84.81;98534.78;114624;1207;24913;-61
2021/04/02 08:39:41;;;;;;;12.75;9.95;;;;;;;7.48;84.97;98535.03;117999;1205;22982;-63
2021/04/02 08:42:10;;;;;;;13.25;8.20;;;;;;;7.47;84.84;98543.41;117771;1205;23829;-62
2021/04/02 08:44:40;;;;;;;21.35;12.80;;;;;;;7.42;85.91;98549.61;118051;1206;23092;-62
2021/04/02 08:47:09;;;;;;;14.05;9.30;;;;;;;7.33;86.02;98541.16;117887;1206;22912;-62
2021/04/02 08:49:41;;;;;;;14.40;9.35;;;;;;;7.25;86.08;98541.63;117617;1205;24809;-63
2021/04/02 08:52:09;;;;;;;8.40;6.70;;;;;;;7.17;85.79;98541.31;117743;1205;23038;-62
2021/04/02 08:54:37;;;;;;;11.70;6.30;;;;;;;7.06;85.33;98540.43;117743;1208;22979;-62
2021/04/02 08:57:05;;;;;;;8.50;5.60;;;;;;;6.98;85.87;98536.29;117709;1205;22926;-62
2021/04/02 08:59:33;;;;;;;9.90;5.43;;;;;;;6.95;86.17;98535.98;117912;1208;22817;-63
2021/04/02 09:02:01;;;;;;;6.27;4.50;;;;;;;6.92;85.56;98547.36;117805;1206;22884;-62
2021/04/02 09:04:29;;;;;;;5.00;3.70;;;;;;;6.88;85.32;98546.23;117858;1206;23027;-61
2021/04/02 09:06:57;;;;;;;7.40;4.55;;;;;;;6.78;85.66;98555.06;114912;1209;23170;-64
2021/04/02 09:09:29;;;;;;;7.30;4.30;;;;;;;6.69;85.50;98562.84;117637;1205;23798;-65
2021/04/02 09:12:04;;;;;;;8.53;4.80;;;;;;;6.63;85.79;98563.88;117893;1205;23550;-65
2021/04/02 09:14:31;;;;;;;7.90;4.73;;;;;;;6.56;85.79;98563.25;117779;1206;22892;-65
2021/04/02 09:16:59;;;;;;;5.25;3.70;;;;;;;6.53;84.98;98562.94;117846;1209;23001;-66
2021/04/02 09:19:27;;;;;;;7.35;4.60;;;;;;;6.48;85.63;98573.73;117828;1205;22835;-65
2021/04/02 09:21:56;;;;;;;7.40;4.15;;;;;;;6.46;85.74;98570.46;117898;1205;23831;-65
2021/04/02 09:24:23;;;;;;;7.05;4.70;;;;;;;6.39;86.07;98579.58;117607;1204;22969;-64
2021/04/02 09:26:51;;;;;;;5.10;4.00;;;;;;;6.31;85.24;98580.05;117953;1208;22816;-65
2021/04/02 09:29:21;;;;;;;5.80;4.10;;;;;;;6.19;85.49;98576.66;117679;1205;22945;-64
2021/04/02 09:31:50;;;;;;;5.25;3.55;;;;;;;6.09;85.24;98579.22;117906;1205;23549;-63
2021/04/02 09:34:18;;;;;;;5.15;3.30;;;;;;;6.05;85.28;98582.70;117658;1206;22917;-63
2021/04/02 09:36:47;;;;;;;7.40;3.60;;;;;;;6.01;85.07;98577.80;117867;1208;22887;-63
2021/04/02 09:39:22;;;;;;;6.10;2.93;;;;;;;5.91;84.98;98569.56;117844;1205;23440;-63
2021/04/02 09:41:58;;;;;;;4.20;2.25;;;;;;;5.91;85.52;98576.86;117867;1205;22830;-63
2021/04/02 09:44:28;;;;;;;2.77;2.20;;;;;;;5.89;85.12;98577.10;117884;1205;23942;-63
2021/04/02 09:47:06;;;;;;;3.97;2.30;;;;;;;5.92;85.71;98587.39;117825;1208;22921;-63
2021/04/02 09:49:35;;;;;;;1.80;1.50;;;;;;;5.95;85.34;98581.48;117995;1208;22846;-64
2021/04/02 09:52:04;;;;;;;2.00;1.30;;;;;;;5.93;85.08;98583.63;117889;1205;22856;-64
2021/04/02 09:54:31;;;;;;;2.75;1.05;;;;;;;5.91;84.56;98579.56;117978;1208;22853;-64
2021/04/02 09:57:07;;;;;;;1.30;1.15;;;;;;;5.81;84.85;98576.67;117827;1206;23561;-64
2021/04/02 09:59:34;;;;;;;2.40;1.65;;;;;;;5.80;84.93;98578.55;117904;1205;22883;-64
2021/04/02 10:02:02;;;;;;;2.10;1.40;;;;;;;5.80;84.77;98573.15;118065;1207;22960;-64
2021/04/02 10:04:30;;;;;;;2.45;1.50;;;;;;;5.80;85.16;98586.66;118002;1206;22925;-63
2021/04/02 10:06:58;;;;;;;2.17;1.17;;;;;;;5.78;84.20;98585.27;117877;1205;23437;-64
2021/04/02 10:09:25;;;;;;;1.25;1.15;;;;;;;5.74;84.35;98587.68;117875;1205;22993;-63
2021/04/02 10:11:54;;;;;;;3.05;1.40;;;;;;;5.73;85.02;98596.03;117892;1206;22838;-64
2021/04/02 10:14:28;;;;;;;1.70;1.20;;;;;;;5.71;84.61;98598.16;118102;1206;22881;-63
2021/04/02 10:16:55;;;;;;;2.15;1.20;;;;;;;5.69;85.02;98593.00;117799;1205;22993;-63
2021/04/02 10:19:23;;;;;;;3.05;1.70;;;;;;;5.71;84.63;98606.27;117866;1205;22937;-64
2021/04/02 10:21:52;;;;;;;1.70;1.20;;;;;;;5.72;84.54;98597.92;117941;1208;22915;-64
2021/04/02 10:24:19;;;;;;;0.80;0.80;;;;;;;5.69;84.05;98593.00;118012;1205;24120;-64
2021/04/02 10:26:48;;;;;;;1.75;1.00;;;;;;;5.65;84.14;98589.97;117940;1209;22804;-64
2021/04/02 10:29:15;;;;;;;2.60;1.10;;;;;;;5.65;83.75;98597.27;117944;1205;22915;-65
2021/04/02 10:31:46;;;;;;;1.10;0.80;;;;;;;5.61;83.63;98601.55;117804;1205;22884;-65
2021/04/02 10:34:13;;;;;;;1.10;0.80;;;;;;;5.55;82.38;98602.53;117833;1206;22842;-65
2021/04/02 10:36:42;;;;;;;1.85;1.40;;;;;;;5.47;82.36;98605.66;117795;1206;22884;-65
2021/04/02 10:39:10;;;;;;;1.55;1.10;;;;;;;5.44;83.08;98609.67;117986;1206;23280;-65
2021/04/02 10:41:38;;;;;;;1.55;1.15;;;;;;;5.45;83.14;98613.20;117912;1204;23001;-64
2021/04/02 10:44:06;;;;;;;2.80;1.40;;;;;;;5.43;82.61;98615.31;117889;1205;22846;-65
2021/04/02 10:46:34;;;;;;;4.47;1.90;;;;;;;5.42;82.40;98627.19;117884;1206;22817;-65
2021/04/02 10:49:02;;;;;;;2.00;1.00;;;;;;;5.38;83.04;98616.05;117830;1208;22912;-65
2021/04/02 10:51:30;;;;;;;1.80;1.00;;;;;;;5.36;82.63;98620.88;117961;1206;23526;-64
2021/04/02 10:54:01;;;;;;;1.50;1.10;;;;;;;5.33;82.57;98611.41;117856;1205;22826;-64
2021/04/02 10:56:30;;;;;;;1.70;1.00;;;;;;;5.31;82.55;98613.53;117817;1206;22880;-63
2021/04/02 10:58:57;;;;;;;2.35;1.60;;;;;;;5.33;82.40;98615.98;117761;1208;22806;-64
2021/04/02 11:01:25;;;;;;;1.75;1.10;;;;;;;5.31;82.59;98612.71;117872;1205;23882;-63
2021/04/02 11:03:52;;;;;;;2.10;1.20;;;;;;;5.27;82.22;98623.18;117855;1205;22910;-63
2021/04/02 11:06:21;;;;;;;2.30;1.10;;;;;;;5.22;82.77;98631.19;117613;1205;22907;-63
2021/04/02 11:08:48;;;;;;;1.57;0.90;;;;;;;5.16;82.60;98623.27;117939;1208;23495;-63
2021/04/02 11:11:15;;;;;;;2.90;1.40;;;;;;;5.13;82.90;98621.87;117823;1207;23192;-64
2021/04/02 11:13:43;;;;;;;2.00;1.45;;;;;;;5.12;83.07;98631.03;117743;1206;22889;-63
2021/04/02 11:16:12;;;;;;;2.85;1.35;;;;;;;5.11;83.27;98625.87;116186;1209;23124;-62
2021/04/02 11:18:45;;;;;;;1.30;1.00;;;;;;;5.04;83.58;98625.23;113753;1209;23688;-61
2021/04/02 11:21:13;;;;;;;2.80;1.60;;;;;;;4.98;84.09;98633.23;117701;1205;22918;-62
2021/04/02 11:23:41;;;;;;;2.05;1.50;;;;;;;4.93;84.08;98632.31;117786;1209;22887;-63
2021/04/02 11:26:11;;;;;;;1.73;1.20;;;;;;;4.92;84.33;98630.67;117845;1205;22982;-62
2021/04/02 11:28:39;;;;;;;1.30;0.80;;;;;;;4.89;83.92;98629.30;117969;1206;24033;-62
2021/04/02 11:31:07;;;;;;;3.53;1.47;;;;;;;4.83;83.70;98630.25;117712;1205;22964;-62
2021/04/02 11:33:35;;;;;;;1.40;0.80;;;;;;;4.78;83.18;98632.03;117844;1205;22884;-62
2021/04/02 11:36:04;;;;;;;1.07;0.80;;;;;;;4.77;83.29;98633.09;117719;1205;23873;-63